sensor_id;sensor_type;location;lat;lon;timestamp;P1;durP1;ratioP1;P2;durP2;ratioP2
69744;SDS011;57015;50.120;-5.168;2022-07-29T00:01:46;3.80;;;0.90;;
69744;SDS011;57015;50.120;-5.168;2022-07-29T00:04:11;2.07;;;0.70;;
69744;SDS011;57015;50.120;-5.168;2022-07-29T00:06:37;1.97;;;0.80;;
69744;SDS011;57015;50.120;-5.168;2022-07-29T00:09:02;2.13;;;0.85;;
69744;SDS011;57015;50.120;-5.168;2022-07-29T00:11:28;2.30;;;0.70;;
69744;SDS011;57015;50.120;-5.168;2022-07-29T00:13:53;3.23;;;0.80;;
69744;SDS011;57015;50.120;-5.168;2022-07-29T00:16:19;3.03;;;0.70;;
69744;SDS011;57015;50.120;-5.168;2022-07-29T00:18:45;1.83;;;0.68;;
69744;SDS011;57015;50.120;-5.168;2022-07-29T00:21:11;3.07;;;1.00;;
69744;SDS011;57015;50.120;-5.168;2022-07-29T00:23:36;3.77;;;0.70;;
69744;SDS011;57015;50.120;-5.168;2022-07-29T00:26:01;3.20;;;0.97;;
69744;SDS011;57015;50.120;-5.168;2022-07-29T00:28:27;2.63;;;0.88;;
69744;SDS011;57015;50.120;-5.168;2022-07-29T00:30:52;2.17;;;1.00;;
69744;SDS011;57015;50.120;-5.168;2022-07-29T00:33:18;2.20;;;0.80;;
69744;SDS011;57015;50.120;-5.168;2022-07-29T00:35:43;3.63;;;0.70;;
69744;SDS011;57015;50.120;-5.168;2022-07-29T00:38:09;4.27;;;0.90;;
69744;SDS011;57015;50.120;-5.168;2022-07-29T00:40:38;3.95;;;1.10;;
69744;SDS011;57015;50.120;-5.168;2022-07-29T00:43:04;2.83;;;0.80;;
69744;SDS011;57015;50.120;-5.168;2022-07-29T00:45:29;2.23;;;0.70;;
69744;SDS011;57015;50.120;-5.168;2022-07-29T00:47:55;2.75;;;1.10;;
69744;SDS011;57015;50.120;-5.168;2022-07-29T00:50:20;2.63;;;0.60;;
69744;SDS011;57015;50.120;-5.168;2022-07-29T00:52:46;3.30;;;0.80;;
69744;SDS011;57015;50.120;-5.168;2022-07-29T00:55:12;2.95;;;0.88;;
69744;SDS011;57015;50.120;-5.168;2022-07-29T00:57:39;2.60;;;0.90;;
69744;SDS011;57015;50.120;-5.168;2022-07-29T01:00:06;5.75;;;0.88;;
69744;SDS011;57015;50.120;-5.168;2022-07-29T01:02:34;2.10;;;0.75;;
69744;SDS011;57015;50.120;-5.168;2022-07-29T01:04:59;1.63;;;0.60;;
69744;SDS011;57015;50.120;-5.168;2022-07-29T01:07:25;3.13;;;0.93;;
69744;SDS011;57015;50.120;-5.168;2022-07-29T01:09:51;3.35;;;1.00;;
69744;SDS011;57015;50.120;-5.168;2022-07-29T01:12:18;2.63;;;0.93;;
69744;SDS011;57015;50.120;-5.168;2022-07-29T01:14:48;2.80;;;1.00;;
69744;SDS011;57015;50.120;-5.168;2022-07-29T01:17:16;1.92;;;0.70;;
69744;SDS011;57015;50.120;-5.168;2022-07-29T01:23:18;2.55;;;0.90;;
69744;SDS011;57015;50.120;-5.168;2022-07-29T01:30:44;1.73;;;0.77;;
69744;SDS011;57015;50.120;-5.168;2022-07-29T01:33:11;2.78;;;0.95;;
69744;SDS011;57015;50.120;-5.168;2022-07-29T01:36:00;2.87;;;0.70;;
69744;SDS011;57015;50.120;-5.168;2022-07-29T01:38:26;3.28;;;0.80;;
69744;SDS011;57015;50.120;-5.168;2022-07-29T01:40:54;1.45;;;0.63;;
69744;SDS011;57015;50.120;-5.168;2022-07-29T01:44:18;2.38;;;0.95;;
69744;SDS011;57015;50.120;-5.168;2022-07-29T01:46:24;2.63;;;0.60;;
69744;SDS011;57015;50.120;-5.168;2022-07-29T01:48:54;3.53;;;0.90;;
69744;SDS011;57015;50.120;-5.168;2022-07-29T01:51:31;2.40;;;0.75;;
69744;SDS011;57015;50.120;-5.168;2022-07-29T01:54:04;2.75;;;0.88;;
69744;SDS011;57015;50.120;-5.168;2022-07-29T01:56:31;2.25;;;0.80;;
69744;SDS011;57015;50.120;-5.168;2022-07-29T01:58:58;2.20;;;0.85;;
69744;SDS011;57015;50.120;-5.168;2022-07-29T02:01:24;3.20;;;1.10;;
69744;SDS011;57015;50.120;-5.168;2022-07-29T02:03:51;2.08;;;0.65;;
69744;SDS011;57015;50.120;-5.168;2022-07-29T02:06:19;1.95;;;0.88;;
69744;SDS011;57015;50.120;-5.168;2022-07-29T02:08:46;2.60;;;1.00;;
69744;SDS011;57015;50.120;-5.168;2022-07-29T02:11:12;1.98;;;0.80;;
69744;SDS011;57015;50.120;-5.168;2022-07-29T02:13:38;1.80;;;0.60;;
69744;SDS011;57015;50.120;-5.168;2022-07-29T02:16:04;3.92;;;0.82;;
69744;SDS011;57015;50.120;-5.168;2022-07-29T02:18:31;3.53;;;0.80;;
69744;SDS011;57015;50.120;-5.168;2022-07-29T02:20:58;3.28;;;0.85;;
69744;SDS011;57015;50.120;-5.168;2022-07-29T02:23:24;1.65;;;0.70;;
69744;SDS011;57015;50.120;-5.168;2022-07-29T02:25:51;1.93;;;0.83;;
69744;SDS011;57015;50.120;-5.168;2022-07-29T02:28:19;1.95;;;0.68;;
69744;SDS011;57015;50.120;-5.168;2022-07-29T02:30:45;2.30;;;0.80;;
69744;SDS011;57015;50.120;-5.168;2022-07-29T02:33:13;1.98;;;0.60;;
69744;SDS011;57015;50.120;-5.168;2022-07-29T02:35:40;2.58;;;0.70;;
69744;SDS011;57015;50.120;-5.168;2022-07-29T02:38:06;1.93;;;0.63;;
69744;SDS011;57015;50.120;-5.168;2022-07-29T02:40:51;2.20;;;0.82;;
69744;SDS011;57015;50.120;-5.168;2022-07-29T02:43:18;2.15;;;0.70;;
69744;SDS011;57015;50.120;-5.168;2022-07-29T02:45:44;3.03;;;0.90;;
69744;SDS011;57015;50.120;-5.168;2022-07-29T02:48:10;2.70;;;0.73;;
69744;SDS011;57015;50.120;-5.168;2022-07-29T02:50:48;2.30;;;0.80;;
69744;SDS011;57015;50.120;-5.168;2022-07-29T02:53:17;3.80;;;0.90;;
69744;SDS011;57015;50.120;-5.168;2022-07-29T02:55:45;1.67;;;0.63;;
69744;SDS011;57015;50.120;-5.168;2022-07-29T03:01:02;2.42;;;0.60;;
69744;SDS011;57015;50.120;-5.168;2022-07-29T03:03:30;4.88;;;0.95;;
69744;SDS011;57015;50.120;-5.168;2022-07-29T03:05:59;2.22;;;0.57;;
69744;SDS011;57015;50.120;-5.168;2022-07-29T03:08:25;1.43;;;0.60;;
69744;SDS011;57015;50.120;-5.168;2022-07-29T03:10:51;1.75;;;0.50;;
69744;SDS011;57015;50.120;-5.168;2022-07-29T03:13:18;2.13;;;0.60;;
69744;SDS011;57015;50.120;-5.168;2022-07-29T03:15:44;2.72;;;0.80;;
69744;SDS011;57015;50.120;-5.168;2022-07-29T03:18:10;2.23;;;1.13;;
69744;SDS011;57015;50.120;-5.168;2022-07-29T03:20:36;1.80;;;0.65;;
69744;SDS011;57015;50.120;-5.168;2022-07-29T03:23:02;2.40;;;0.80;;
69744;SDS011;57015;50.120;-5.168;2022-07-29T03:25:27;2.25;;;0.90;;
69744;SDS011;57015;50.120;-5.168;2022-07-29T03:27:53;3.33;;;0.70;;
69744;SDS011;57015;50.120;-5.168;2022-07-29T03:30:19;1.73;;;0.50;;
69744;SDS011;57015;50.120;-5.168;2022-07-29T03:32:44;3.72;;;0.98;;
69744;SDS011;57015;50.120;-5.168;2022-07-29T03:35:10;4.03;;;0.93;;
69744;SDS011;57015;50.120;-5.168;2022-07-29T03:37:35;1.90;;;0.70;;
69744;SDS011;57015;50.120;-5.168;2022-07-29T03:40:02;2.35;;;0.70;;
69744;SDS011;57015;50.120;-5.168;2022-07-29T03:42:30;2.37;;;0.80;;
69744;SDS011;57015;50.120;-5.168;2022-07-29T03:45:02;2.20;;;0.82;;
69744;SDS011;57015;50.120;-5.168;2022-07-29T03:47:31;2.40;;;0.88;;
69744;SDS011;57015;50.120;-5.168;2022-07-29T03:50:02;4.05;;;0.95;;
69744;SDS011;57015;50.120;-5.168;2022-07-29T03:52:31;2.67;;;0.60;;
69744;SDS011;57015;50.120;-5.168;2022-07-29T03:54:57;3.77;;;0.87;;
69744;SDS011;57015;50.120;-5.168;2022-07-29T03:57:23;2.78;;;0.95;;
69744;SDS011;57015;50.120;-5.168;2022-07-29T03:59:50;2.63;;;0.70;;
69744;SDS011;57015;50.120;-5.168;2022-07-29T04:02:16;2.13;;;0.40;;
69744;SDS011;57015;50.120;-5.168;2022-07-29T04:04:42;2.72;;;0.60;;
69744;SDS011;57015;50.120;-5.168;2022-07-29T04:07:09;3.73;;;0.80;;
69744;SDS011;57015;50.120;-5.168;2022-07-29T04:09:37;2.15;;;0.70;;
69744;SDS011;57015;50.120;-5.168;2022-07-29T04:12:02;2.13;;;0.70;;
69744;SDS011;57015;50.120;-5.168;2022-07-29T04:14:28;1.67;;;0.60;;
69744;SDS011;57015;50.120;-5.168;2022-07-29T04:16:54;2.22;;;0.57;;
69744;SDS011;57015;50.120;-5.168;2022-07-29T04:19:20;2.22;;;0.73;;
69744;SDS011;57015;50.120;-5.168;2022-07-29T04:21:45;3.57;;;0.60;;
69744;SDS011;57015;50.120;-5.168;2022-07-29T04:24:10;3.57;;;0.80;;
69744;SDS011;57015;50.120;-5.168;2022-07-29T04:26:36;2.00;;;0.60;;
69744;SDS011;57015;50.120;-5.168;2022-07-29T04:29:01;2.33;;;0.87;;
69744;SDS011;57015;50.120;-5.168;2022-07-29T04:31:26;1.90;;;0.60;;
69744;SDS011;57015;50.120;-5.168;2022-07-29T04:33:52;1.70;;;0.68;;
69744;SDS011;57015;50.120;-5.168;2022-07-29T04:36:17;2.13;;;0.90;;
69744;SDS011;57015;50.120;-5.168;2022-07-29T04:38:43;2.27;;;0.73;;
69744;SDS011;57015;50.120;-5.168;2022-07-29T04:41:08;4.07;;;0.87;;
69744;SDS011;57015;50.120;-5.168;2022-07-29T04:43:34;2.37;;;0.60;;
69744;SDS011;57015;50.120;-5.168;2022-07-29T04:46:00;3.20;;;0.60;;
69744;SDS011;57015;50.120;-5.168;2022-07-29T04:48:26;2.13;;;0.50;;
69744;SDS011;57015;50.120;-5.168;2022-07-29T04:50:52;4.40;;;1.00;;
69744;SDS011;57015;50.120;-5.168;2022-07-29T04:53:17;1.77;;;0.60;;
69744;SDS011;57015;50.120;-5.168;2022-07-29T04:55:43;2.97;;;0.67;;
69744;SDS011;57015;50.120;-5.168;2022-07-29T04:58:09;3.13;;;1.13;;
69744;SDS011;57015;50.120;-5.168;2022-07-29T05:00:35;2.70;;;0.90;;
69744;SDS011;57015;50.120;-5.168;2022-07-29T05:03:00;2.97;;;0.88;;
69744;SDS011;57015;50.120;-5.168;2022-07-29T05:05:26;1.60;;;0.50;;
69744;SDS011;57015;50.120;-5.168;2022-07-29T05:07:51;2.77;;;0.80;;
69744;SDS011;57015;50.120;-5.168;2022-07-29T05:10:17;2.07;;;0.80;;
69744;SDS011;57015;50.120;-5.168;2022-07-29T05:12:42;3.63;;;0.70;;
69744;SDS011;57015;50.120;-5.168;2022-07-29T05:15:08;2.10;;;0.77;;
69744;SDS011;57015;50.120;-5.168;2022-07-29T05:17:33;2.88;;;0.65;;
69744;SDS011;57015;50.120;-5.168;2022-07-29T05:19:59;2.77;;;0.90;;
69744;SDS011;57015;50.120;-5.168;2022-07-29T05:22:24;2.23;;;0.70;;
69744;SDS011;57015;50.120;-5.168;2022-07-29T05:24:50;3.78;;;0.85;;
69744;SDS011;57015;50.120;-5.168;2022-07-29T05:27:15;2.00;;;0.87;;
69744;SDS011;57015;50.120;-5.168;2022-07-29T05:29:40;3.47;;;0.80;;
69744;SDS011;57015;50.120;-5.168;2022-07-29T05:32:06;2.73;;;0.80;;
69744;SDS011;57015;50.120;-5.168;2022-07-29T05:34:31;2.60;;;0.77;;
69744;SDS011;57015;50.120;-5.168;2022-07-29T05:36:57;3.33;;;1.10;;
69744;SDS011;57015;50.120;-5.168;2022-07-29T05:39:22;2.67;;;0.97;;
69744;SDS011;57015;50.120;-5.168;2022-07-29T05:41:48;2.87;;;0.83;;
69744;SDS011;57015;50.120;-5.168;2022-07-29T05:44:13;3.38;;;0.75;;
69744;SDS011;57015;50.120;-5.168;2022-07-29T05:46:39;2.03;;;0.98;;
69744;SDS011;57015;50.120;-5.168;2022-07-29T05:49:04;2.53;;;0.80;;
69744;SDS011;57015;50.120;-5.168;2022-07-29T05:51:31;2.75;;;0.80;;
69744;SDS011;57015;50.120;-5.168;2022-07-29T05:53:57;2.83;;;1.15;;
69744;SDS011;57015;50.120;-5.168;2022-07-29T05:56:23;3.77;;;1.00;;
69744;SDS011;57015;50.120;-5.168;2022-07-29T05:58:49;2.78;;;1.00;;
69744;SDS011;57015;50.120;-5.168;2022-07-29T06:01:14;2.07;;;0.90;;
69744;SDS011;57015;50.120;-5.168;2022-07-29T06:03:39;2.40;;;0.87;;
69744;SDS011;57015;50.120;-5.168;2022-07-29T06:06:06;2.90;;;0.90;;
69744;SDS011;57015;50.120;-5.168;2022-07-29T06:08:32;2.50;;;1.10;;
69744;SDS011;57015;50.120;-5.168;2022-07-29T06:10:58;2.25;;;1.00;;
69744;SDS011;57015;50.120;-5.168;2022-07-29T06:13:24;2.55;;;1.20;;
69744;SDS011;57015;50.120;-5.168;2022-07-29T06:15:50;3.57;;;1.13;;
69744;SDS011;57015;50.120;-5.168;2022-07-29T06:18:15;3.20;;;1.33;;
69744;SDS011;57015;50.120;-5.168;2022-07-29T06:20:40;2.67;;;1.00;;
69744;SDS011;57015;50.120;-5.168;2022-07-29T06:23:06;2.90;;;1.13;;
69744;SDS011;57015;50.120;-5.168;2022-07-29T06:25:31;3.03;;;1.10;;
69744;SDS011;57015;50.120;-5.168;2022-07-29T06:28:01;1.50;;;0.90;;
69744;SDS011;57015;50.120;-5.168;2022-07-29T06:30:27;1.58;;;1.00;;
69744;SDS011;57015;50.120;-5.168;2022-07-29T06:32:53;4.35;;;1.00;;
69744;SDS011;57015;50.120;-5.168;2022-07-29T06:35:19;2.63;;;0.80;;
69744;SDS011;57015;50.120;-5.168;2022-07-29T06:37:44;1.93;;;0.80;;
69744;SDS011;57015;50.120;-5.168;2022-07-29T06:40:10;4.57;;;1.10;;
69744;SDS011;57015;50.120;-5.168;2022-07-29T06:42:54;6.60;;;0.95;;
69744;SDS011;57015;50.120;-5.168;2022-07-29T06:45:20;3.30;;;1.10;;
69744;SDS011;57015;50.120;-5.168;2022-07-29T06:47:45;3.53;;;0.90;;
69744;SDS011;57015;50.120;-5.168;2022-07-29T06:50:10;1.90;;;0.73;;
69744;SDS011;57015;50.120;-5.168;2022-07-29T06:52:37;3.40;;;1.10;;
69744;SDS011;57015;50.120;-5.168;2022-07-29T06:55:03;3.05;;;1.10;;
69744;SDS011;57015;50.120;-5.168;2022-07-29T06:57:29;5.47;;;1.50;;
69744;SDS011;57015;50.120;-5.168;2022-07-29T06:59:57;3.57;;;1.20;;
69744;SDS011;57015;50.120;-5.168;2022-07-29T07:02:23;2.38;;;1.30;;
69744;SDS011;57015;50.120;-5.168;2022-07-29T07:04:48;3.03;;;1.10;;
69744;SDS011;57015;50.120;-5.168;2022-07-29T07:07:14;3.67;;;1.30;;
69744;SDS011;57015;50.120;-5.168;2022-07-29T07:09:39;4.33;;;1.10;;
69744;SDS011;57015;50.120;-5.168;2022-07-29T07:12:05;6.40;;;1.35;;
69744;SDS011;57015;50.120;-5.168;2022-07-29T07:14:31;8.27;;;3.40;;
69744;SDS011;57015;50.120;-5.168;2022-07-29T07:16:56;9.30;;;3.23;;
69744;SDS011;57015;50.120;-5.168;2022-07-29T07:19:22;11.85;;;3.75;;
69744;SDS011;57015;50.120;-5.168;2022-07-29T07:21:47;9.73;;;4.13;;
69744;SDS011;57015;50.120;-5.168;2022-07-29T07:24:12;15.30;;;5.53;;
69744;SDS011;57015;50.120;-5.168;2022-07-29T07:26:38;12.20;;;5.00;;
69744;SDS011;57015;50.120;-5.168;2022-07-29T07:29:04;12.13;;;4.50;;
69744;SDS011;57015;50.120;-5.168;2022-07-29T07:31:30;18.33;;;5.20;;
69744;SDS011;57015;50.120;-5.168;2022-07-29T07:33:56;11.55;;;4.70;;
69744;SDS011;57015;50.120;-5.168;2022-07-29T07:36:22;13.13;;;4.57;;
69744;SDS011;57015;50.120;-5.168;2022-07-29T07:38:48;14.82;;;4.45;;
69744;SDS011;57015;50.120;-5.168;2022-07-29T07:41:13;12.02;;;5.07;;
69744;SDS011;57015;50.120;-5.168;2022-07-29T07:43:39;13.33;;;4.00;;
69744;SDS011;57015;50.120;-5.168;2022-07-29T07:46:04;10.83;;;3.70;;
69744;SDS011;57015;50.120;-5.168;2022-07-29T07:48:30;10.37;;;3.70;;
69744;SDS011;57015;50.120;-5.168;2022-07-29T07:50:55;9.93;;;3.70;;
69744;SDS011;57015;50.120;-5.168;2022-07-29T07:53:21;11.43;;;3.70;;
69744;SDS011;57015;50.120;-5.168;2022-07-29T07:55:46;8.87;;;2.77;;
69744;SDS011;57015;50.120;-5.168;2022-07-29T07:58:11;12.77;;;3.30;;
69744;SDS011;57015;50.120;-5.168;2022-07-29T08:00:37;8.87;;;3.37;;
69744;SDS011;57015;50.120;-5.168;2022-07-29T08:03:02;8.20;;;3.30;;
69744;SDS011;57015;50.120;-5.168;2022-07-29T08:05:28;7.90;;;2.67;;
69744;SDS011;57015;50.120;-5.168;2022-07-29T08:07:53;5.53;;;2.33;;
69744;SDS011;57015;50.120;-5.168;2022-07-29T08:10:19;11.97;;;2.93;;
69744;SDS011;57015;50.120;-5.168;2022-07-29T08:13:04;10.30;;;2.83;;
69744;SDS011;57015;50.120;-5.168;2022-07-29T08:15:30;8.05;;;2.90;;
69744;SDS011;57015;50.120;-5.168;2022-07-29T08:17:55;7.93;;;2.20;;
69744;SDS011;57015;50.120;-5.168;2022-07-29T08:20:21;7.37;;;1.83;;
69744;SDS011;57015;50.120;-5.168;2022-07-29T08:22:46;7.23;;;1.60;;
69744;SDS011;57015;50.120;-5.168;2022-07-29T08:25:11;4.63;;;1.63;;
69744;SDS011;57015;50.120;-5.168;2022-07-29T08:27:37;7.28;;;1.88;;
69744;SDS011;57015;50.120;-5.168;2022-07-29T08:30:02;5.17;;;1.43;;
69744;SDS011;57015;50.120;-5.168;2022-07-29T08:32:28;6.28;;;1.80;;
69744;SDS011;57015;50.120;-5.168;2022-07-29T08:34:54;5.03;;;1.60;;
69744;SDS011;57015;50.120;-5.168;2022-07-29T08:37:19;6.13;;;1.60;;
69744;SDS011;57015;50.120;-5.168;2022-07-29T08:39:44;5.40;;;1.60;;
69744;SDS011;57015;50.120;-5.168;2022-07-29T08:42:10;4.97;;;1.60;;
69744;SDS011;57015;50.120;-5.168;2022-07-29T08:44:36;7.18;;;1.63;;
69744;SDS011;57015;50.120;-5.168;2022-07-29T08:47:02;4.70;;;1.50;;
69744;SDS011;57015;50.120;-5.168;2022-07-29T08:49:27;5.77;;;1.63;;
69744;SDS011;57015;50.120;-5.168;2022-07-29T08:51:53;4.80;;;1.13;;
69744;SDS011;57015;50.120;-5.168;2022-07-29T08:54:18;4.93;;;1.38;;
69744;SDS011;57015;50.120;-5.168;2022-07-29T08:56:47;4.70;;;1.07;;
69744;SDS011;57015;50.120;-5.168;2022-07-29T08:59:14;5.15;;;1.85;;
69744;SDS011;57015;50.120;-5.168;2022-07-29T09:01:41;6.75;;;1.00;;
69744;SDS011;57015;50.120;-5.168;2022-07-29T09:04:09;4.47;;;1.15;;
69744;SDS011;57015;50.120;-5.168;2022-07-29T09:06:37;4.55;;;1.38;;
69744;SDS011;57015;50.120;-5.168;2022-07-29T09:09:04;5.00;;;1.50;;
69744;SDS011;57015;50.120;-5.168;2022-07-29T09:11:31;7.60;;;1.50;;
69744;SDS011;57015;50.120;-5.168;2022-07-29T09:13:57;3.58;;;1.30;;
69744;SDS011;57015;50.120;-5.168;2022-07-29T09:16:22;5.43;;;1.20;;
69744;SDS011;57015;50.120;-5.168;2022-07-29T09:18:48;5.80;;;1.20;;
69744;SDS011;57015;50.120;-5.168;2022-07-29T09:21:14;6.30;;;1.40;;
69744;SDS011;57015;50.120;-5.168;2022-07-29T09:26:35;5.30;;;1.45;;
69744;SDS011;57015;50.120;-5.168;2022-07-29T09:31:44;4.73;;;1.57;;
69744;SDS011;57015;50.120;-5.168;2022-07-29T09:34:11;6.63;;;1.73;;
69744;SDS011;57015;50.120;-5.168;2022-07-29T09:36:45;5.50;;;1.85;;
69744;SDS011;57015;50.120;-5.168;2022-07-29T09:39:11;6.97;;;1.80;;
69744;SDS011;57015;50.120;-5.168;2022-07-29T09:41:51;3.13;;;1.33;;
69744;SDS011;57015;50.120;-5.168;2022-07-29T09:44:18;3.77;;;1.20;;
69744;SDS011;57015;50.120;-5.168;2022-07-29T09:46:59;8.68;;;1.70;;
69744;SDS011;57015;50.120;-5.168;2022-07-29T09:49:33;5.80;;;1.48;;
69744;SDS011;57015;50.120;-5.168;2022-07-29T09:52:03;5.13;;;1.40;;
69744;SDS011;57015;50.120;-5.168;2022-07-29T09:54:31;6.72;;;1.55;;
69744;SDS011;57015;50.120;-5.168;2022-07-29T09:57:04;7.00;;;1.98;;
69744;SDS011;57015;50.120;-5.168;2022-07-29T09:59:30;6.90;;;1.50;;
69744;SDS011;57015;50.120;-5.168;2022-07-29T10:01:56;5.87;;;1.43;;
69744;SDS011;57015;50.120;-5.168;2022-07-29T10:04:21;4.07;;;1.48;;
69744;SDS011;57015;50.120;-5.168;2022-07-29T10:09:22;6.07;;;1.73;;
69744;SDS011;57015;50.120;-5.168;2022-07-29T10:12:02;5.63;;;1.20;;
69744;SDS011;57015;50.120;-5.168;2022-07-29T10:14:30;4.75;;;1.48;;
69744;SDS011;57015;50.120;-5.168;2022-07-29T10:16:56;4.68;;;1.48;;
69744;SDS011;57015;50.120;-5.168;2022-07-29T10:19:22;9.83;;;1.43;;
69744;SDS011;57015;50.120;-5.168;2022-07-29T10:21:47;7.68;;;1.52;;
69744;SDS011;57015;50.120;-5.168;2022-07-29T10:24:13;6.32;;;3.35;;
69744;SDS011;57015;50.120;-5.168;2022-07-29T10:26:38;9.53;;;3.17;;
69744;SDS011;57015;50.120;-5.168;2022-07-29T10:29:05;6.18;;;2.55;;
69744;SDS011;57015;50.120;-5.168;2022-07-29T10:31:43;5.73;;;2.27;;
69744;SDS011;57015;50.120;-5.168;2022-07-29T10:43:31;6.85;;;2.15;;
69744;SDS011;57015;50.120;-5.168;2022-07-29T10:46:01;9.05;;;2.40;;
69744;SDS011;57015;50.120;-5.168;2022-07-29T10:48:27;5.80;;;2.07;;
69744;SDS011;57015;50.120;-5.168;2022-07-29T10:53:24;7.55;;;2.30;;
69744;SDS011;57015;50.120;-5.168;2022-07-29T10:55:51;6.80;;;2.27;;
69744;SDS011;57015;50.120;-5.168;2022-07-29T11:00:42;6.40;;;2.10;;
69744;SDS011;57015;50.120;-5.168;2022-07-29T11:03:08;5.67;;;2.07;;
69744;SDS011;57015;50.120;-5.168;2022-07-29T11:05:50;4.40;;;1.90;;
69744;SDS011;57015;50.120;-5.168;2022-07-29T11:08:18;9.18;;;2.10;;
69744;SDS011;57015;50.120;-5.168;2022-07-29T11:10:53;6.90;;;2.17;;
69744;SDS011;57015;50.120;-5.168;2022-07-29T11:13:58;6.85;;;2.40;;
69744;SDS011;57015;50.120;-5.168;2022-07-29T11:16:23;6.53;;;2.00;;
69744;SDS011;57015;50.120;-5.168;2022-07-29T11:21:43;6.05;;;2.08;;
69744;SDS011;57015;50.120;-5.168;2022-07-29T11:24:16;4.57;;;1.50;;
69744;SDS011;57015;50.120;-5.168;2022-07-29T11:27:05;8.75;;;1.52;;
69744;SDS011;57015;50.120;-5.168;2022-07-29T11:29:31;5.97;;;2.03;;
69744;SDS011;57015;50.120;-5.168;2022-07-29T11:32:08;5.83;;;1.53;;
69744;SDS011;57015;50.120;-5.168;2022-07-29T11:34:35;4.65;;;1.33;;
69744;SDS011;57015;50.120;-5.168;2022-07-29T11:44:59;5.65;;;1.77;;
69744;SDS011;57015;50.120;-5.168;2022-07-29T11:47:36;3.05;;;1.20;;
69744;SDS011;57015;50.120;-5.168;2022-07-29T11:50:12;4.53;;;1.60;;
69744;SDS011;57015;50.120;-5.168;2022-07-29T11:52:44;6.20;;;1.40;;
69744;SDS011;57015;50.120;-5.168;2022-07-29T11:55:14;4.80;;;1.33;;
69744;SDS011;57015;50.120;-5.168;2022-07-29T11:57:54;5.13;;;1.40;;
69744;SDS011;57015;50.120;-5.168;2022-07-29T12:00:25;3.15;;;1.10;;
69744;SDS011;57015;50.120;-5.168;2022-07-29T12:02:52;3.10;;;1.30;;
69744;SDS011;57015;50.120;-5.168;2022-07-29T12:05:18;3.73;;;1.83;;
69744;SDS011;57015;50.120;-5.168;2022-07-29T12:07:44;5.22;;;1.63;;
69744;SDS011;57015;50.120;-5.168;2022-07-29T12:10:10;8.07;;;1.57;;
69744;SDS011;57015;50.120;-5.168;2022-07-29T12:12:36;4.23;;;1.40;;
69744;SDS011;57015;50.120;-5.168;2022-07-29T12:15:17;6.30;;;1.10;;
69744;SDS011;57015;50.120;-5.168;2022-07-29T12:17:45;3.30;;;1.50;;
69744;SDS011;57015;50.120;-5.168;2022-07-29T12:20:12;5.13;;;1.17;;
69744;SDS011;57015;50.120;-5.168;2022-07-29T12:22:42;3.97;;;1.13;;
69744;SDS011;57015;50.120;-5.168;2022-07-29T12:27:36;3.22;;;1.27;;
69744;SDS011;57015;50.120;-5.168;2022-07-29T12:35:00;2.88;;;0.80;;
69744;SDS011;57015;50.120;-5.168;2022-07-29T12:37:32;2.67;;;0.80;;
69744;SDS011;57015;50.120;-5.168;2022-07-29T12:39:59;3.38;;;1.17;;
69744;SDS011;57015;50.120;-5.168;2022-07-29T12:42:24;2.27;;;0.83;;
69744;SDS011;57015;50.120;-5.168;2022-07-29T12:44:50;3.17;;;1.02;;
69744;SDS011;57015;50.120;-5.168;2022-07-29T12:47:16;2.75;;;0.70;;
69744;SDS011;57015;50.120;-5.168;2022-07-29T12:49:43;2.65;;;1.00;;
69744;SDS011;57015;50.120;-5.168;2022-07-29T12:54:52;2.83;;;1.00;;
69744;SDS011;57015;50.120;-5.168;2022-07-29T12:57:18;2.90;;;1.00;;
69744;SDS011;57015;50.120;-5.168;2022-07-29T12:59:43;2.60;;;0.70;;
69744;SDS011;57015;50.120;-5.168;2022-07-29T13:02:20;2.93;;;1.20;;
69744;SDS011;57015;50.120;-5.168;2022-07-29T13:04:55;5.38;;;0.98;;
69744;SDS011;57015;50.120;-5.168;2022-07-29T13:07:26;1.75;;;0.90;;
69744;SDS011;57015;50.120;-5.168;2022-07-29T13:09:54;2.03;;;0.70;;
69744;SDS011;57015;50.120;-5.168;2022-07-29T13:12:23;2.00;;;0.57;;
69744;SDS011;57015;50.120;-5.168;2022-07-29T13:14:49;4.65;;;1.00;;
69744;SDS011;57015;50.120;-5.168;2022-07-29T13:19:49;2.83;;;0.80;;
69744;SDS011;57015;50.120;-5.168;2022-07-29T13:22:19;2.85;;;0.75;;
69744;SDS011;57015;50.120;-5.168;2022-07-29T13:27:18;2.70;;;0.82;;
69744;SDS011;57015;50.120;-5.168;2022-07-29T13:29:46;3.23;;;0.93;;
69744;SDS011;57015;50.120;-5.168;2022-07-29T13:32:12;2.67;;;0.70;;
69744;SDS011;57015;50.120;-5.168;2022-07-29T13:34:38;3.07;;;0.77;;
69744;SDS011;57015;50.120;-5.168;2022-07-29T13:37:03;3.42;;;0.82;;
69744;SDS011;57015;50.120;-5.168;2022-07-29T13:39:29;2.73;;;0.70;;
69744;SDS011;57015;50.120;-5.168;2022-07-29T13:41:55;2.25;;;0.55;;
69744;SDS011;57015;50.120;-5.168;2022-07-29T13:44:20;3.13;;;0.80;;
69744;SDS011;57015;50.120;-5.168;2022-07-29T13:46:46;1.88;;;0.60;;
69744;SDS011;57015;50.120;-5.168;2022-07-29T13:49:11;4.43;;;0.98;;
69744;SDS011;57015;50.120;-5.168;2022-07-29T13:51:37;2.70;;;0.60;;
69744;SDS011;57015;50.120;-5.168;2022-07-29T13:54:03;2.07;;;0.90;;
69744;SDS011;57015;50.120;-5.168;2022-07-29T13:56:28;3.00;;;0.50;;
69744;SDS011;57015;50.120;-5.168;2022-07-29T13:58:54;3.57;;;0.80;;
69744;SDS011;57015;50.120;-5.168;2022-07-29T14:01:19;2.97;;;0.90;;
69744;SDS011;57015;50.120;-5.168;2022-07-29T14:03:45;2.88;;;0.70;;
69744;SDS011;57015;50.120;-5.168;2022-07-29T14:06:10;3.17;;;0.70;;
69744;SDS011;57015;50.120;-5.168;2022-07-29T14:08:36;3.43;;;1.00;;
69744;SDS011;57015;50.120;-5.168;2022-07-29T14:11:01;3.37;;;0.60;;
69744;SDS011;57015;50.120;-5.168;2022-07-29T14:13:26;2.20;;;1.10;;
69744;SDS011;57015;50.120;-5.168;2022-07-29T14:15:52;2.00;;;0.50;;
69744;SDS011;57015;50.120;-5.168;2022-07-29T14:18:18;3.87;;;0.70;;
69744;SDS011;57015;50.120;-5.168;2022-07-29T14:20:43;2.73;;;0.60;;
69744;SDS011;57015;50.120;-5.168;2022-07-29T14:23:08;2.10;;;0.60;;
69744;SDS011;57015;50.120;-5.168;2022-07-29T14:25:34;3.08;;;0.50;;
69744;SDS011;57015;50.120;-5.168;2022-07-29T14:27:59;2.23;;;0.67;;
69744;SDS011;57015;50.120;-5.168;2022-07-29T14:30:25;2.23;;;0.60;;
69744;SDS011;57015;50.120;-5.168;2022-07-29T14:32:50;1.27;;;0.40;;
69744;SDS011;57015;50.120;-5.168;2022-07-29T14:35:15;2.77;;;1.00;;
69744;SDS011;57015;50.120;-5.168;2022-07-29T14:37:41;2.33;;;0.80;;
69744;SDS011;57015;50.120;-5.168;2022-07-29T14:40:07;3.20;;;0.55;;
69744;SDS011;57015;50.120;-5.168;2022-07-29T14:42:33;2.33;;;0.70;;
69744;SDS011;57015;50.120;-5.168;2022-07-29T14:44:58;3.38;;;0.70;;
69744;SDS011;57015;50.120;-5.168;2022-07-29T14:47:24;3.28;;;0.73;;
69744;SDS011;57015;50.120;-5.168;2022-07-29T14:49:49;1.80;;;0.50;;
69744;SDS011;57015;50.120;-5.168;2022-07-29T14:52:15;2.97;;;1.00;;
69744;SDS011;57015;50.120;-5.168;2022-07-29T14:54:40;2.97;;;0.60;;
69744;SDS011;57015;50.120;-5.168;2022-07-29T14:57:05;2.45;;;0.50;;
69744;SDS011;57015;50.120;-5.168;2022-07-29T14:59:31;2.60;;;0.60;;
69744;SDS011;57015;50.120;-5.168;2022-07-29T15:01:56;2.40;;;0.50;;
69744;SDS011;57015;50.120;-5.168;2022-07-29T15:04:22;3.03;;;0.67;;
69744;SDS011;57015;50.120;-5.168;2022-07-29T15:06:47;2.53;;;0.60;;
69744;SDS011;57015;50.120;-5.168;2022-07-29T15:09:13;2.22;;;0.77;;
69744;SDS011;57015;50.120;-5.168;2022-07-29T15:11:38;4.07;;;0.70;;
69744;SDS011;57015;50.120;-5.168;2022-07-29T15:14:04;6.67;;;1.00;;
69744;SDS011;57015;50.120;-5.168;2022-07-29T15:16:30;2.80;;;1.00;;
69744;SDS011;57015;50.120;-5.168;2022-07-29T15:18:55;5.40;;;0.80;;
69744;SDS011;57015;50.120;-5.168;2022-07-29T15:21:22;2.47;;;0.63;;
69744;SDS011;57015;50.120;-5.168;2022-07-29T15:23:48;4.03;;;0.50;;
69744;SDS011;57015;50.120;-5.168;2022-07-29T15:26:13;2.53;;;1.00;;
69744;SDS011;57015;50.120;-5.168;2022-07-29T15:28:39;2.43;;;0.73;;
69744;SDS011;57015;50.120;-5.168;2022-07-29T15:31:05;2.60;;;0.63;;
69744;SDS011;57015;50.120;-5.168;2022-07-29T15:33:30;2.07;;;0.50;;